Time;durP1;ratioP1;P1;durP2;ratioP2;P2;SDS_P1;SDS_P2;PMS_P1;PMS_P2;Temp;Humidity;BMP_temperature;BMP_pressure;BME280_temperature;BME280_humidity;BME280_pressure;Samples;Min_cycle;Max_cycle;Signal;HPM_P1;HPM_P2
2022/07/24 00:01:20;;;;;;;7.55;4.40;;;15.70;99.90;;;;;;4771549;29;20054;-88
2022/07/24 00:03:46;;;;;;;5.75;4.40;;;15.80;99.90;;;;;;4820872;29;20106;-89
2022/07/24 00:06:12;;;;;;;4.72;4.22;;;15.80;99.90;;;;;;4806679;29;20094;-89
2022/07/24 00:08:40;;;;;;;6.47;4.63;;;14.20;99.90;;;;;;4806349;29;20113;-89
2022/07/24 00:11:06;;;;;;;5.75;4.47;;;15.90;99.90;;;;;;4791481;29;20046;-89
2022/07/24 00:13:34;;;;;;;6.20;5.13;;;15.80;99.90;;;;;;4820731;29;20102;-90
2022/07/24 00:16:06;;;;;;;;;;;15.80;99.90;;;;;;4822167;29;20136;-89
2022/07/24 00:18:32;;;;;;;6.35;4.97;;;15.80;99.90;;;;;;4816579;29;20015;-90
2022/07/24 00:21:00;;;;;;;8.40;4.65;;;15.90;99.90;;;;;;4798618;29;20070;-90
2022/07/24 00:23:28;;;;;;;5.57;5.05;;;15.80;99.90;;;;;;4803315;29;20118;-89
2022/07/24 00:25:57;;;;;;;5.15;4.68;;;15.80;99.90;;;;;;4785127;29;20071;-91
2022/07/24 00:28:25;;;;;;;5.80;4.85;;;14.10;99.90;;;;;;4783356;29;20106;-89
2022/07/24 00:30:53;;;;;;;5.05;4.55;;;15.70;99.90;;;;;;4783262;29;20055;-89
2022/07/24 00:33:19;;;;;;;5.22;4.72;;;15.70;99.90;;;;;;4782291;29;20149;-88
2022/07/24 00:35:45;;;;;;;5.30;4.78;;;15.70;99.90;;;;;;4798149;29;20137;-90
2022/07/24 00:38:11;;;;;;;5.28;4.68;;;15.60;99.90;;;;;;4782713;29;20054;-90
2022/07/24 00:40:37;;;;;;;5.60;5.03;;;15.50;99.90;;;;;;4782388;29;20060;-88
2022/07/24 00:43:05;;;;;;;8.02;5.40;;;13.90;99.90;;;;;;4767619;29;20100;-90
2022/07/24 00:45:33;;;;;;;5.88;4.90;;;15.70;99.90;;;;;;4783191;29;20134;-89
2022/07/24 00:48:09;;;;;;;5.68;5.10;;;15.60;99.90;;;;;;4791428;29;20038;-89
2022/07/24 00:50:43;;;;;;;6.40;4.97;;;15.50;99.90;;;;;;4822935;29;20045;-90
2022/07/24 00:53:09;;;;;;;6.93;4.93;;;15.60;99.90;;;;;;4783746;29;20057;-89
2022/07/24 00:55:45;;;;;;;5.97;5.38;;;15.50;99.90;;;;;;4797150;29;20030;-90
2022/07/24 00:58:19;;;;;;;8.35;5.22;;;15.50;99.90;;;;;;4810656;29;20030;-89
2022/07/24 01:00:58;;;;;;;;;;;;;;;;;;;;;
2022/07/24 01:03:27;;;;;;;7.07;5.53;;;15.60;99.90;;;;;;4825490;29;20034;-92
2022/07/24 01:05:55;;;;;;;5.70;5.20;;;15.20;99.90;;;;;;4837898;29;20064;-89
2022/07/24 01:08:22;;;;;;;5.88;4.82;;;15.50;99.90;;;;;;4822718;29;20037;-91
2022/07/24 01:10:48;;;;;;;6.00;5.38;;;16.40;99.90;;;;;;4831811;29;20106;-90
2022/07/24 01:13:17;;;;;;;5.80;5.20;;;15.80;99.90;;;;;;4812522;29;20066;-90
2022/07/24 01:15:43;;;;;;;5.72;5.13;;;15.40;99.90;;;;;;4826699;29;20468;-88
2022/07/24 01:18:11;;;;;;;7.20;5.40;;;16.30;99.90;;;;;;4809136;29;20057;-88
2022/07/24 01:20:38;;;;;;;6.47;5.70;;;15.60;99.90;;;;;;4837606;29;20054;-89
2022/07/24 01:23:04;;;;;;;5.82;5.32;;;15.50;99.90;;;;;;4824251;29;20057;-91
2022/07/24 01:25:30;;;;;;;6.60;5.72;;;15.50;99.90;;;;;;4793517;29;20083;-90
2022/07/24 01:27:55;;;;;;;7.18;5.78;;;16.70;99.90;;;;;;4803716;29;20062;-91
2022/07/24 01:30:21;;;;;;;5.82;5.22;;;15.40;99.90;;;;;;4803645;29;20050;-89
2022/07/24 01:32:47;;;;;;;6.70;5.35;;;15.40;99.90;;;;;;4817401;29;20479;-89
2022/07/24 01:35:16;;;;;;;5.68;5.18;;;15.60;99.90;;;;;;4788879;29;20054;-90
2022/07/24 01:37:46;;;;;;;6.45;5.85;;;15.50;99.90;;;;;;4816551;29;20053;-89
2022/07/24 01:40:13;;;;;;;6.03;5.38;;;15.40;99.90;;;;;;4802792;29;20093;-90
2022/07/24 01:42:46;;;;;;;6.50;5.43;;;15.30;99.90;;;;;;4790461;29;20114;-90
2022/07/24 01:45:17;;;;;;;6.43;5.82;;;15.30;99.90;;;;;;4847668;29;20130;-90
2022/07/24 01:47:44;;;;;;;6.25;5.65;;;15.70;99.90;;;;;;4806455;29;20106;-89
2022/07/24 01:50:14;;;;;;;7.32;5.45;;;15.40;99.90;;;;;;4791357;29;20106;-89
2022/07/24 01:52:40;;;;;;;6.65;5.97;;;13.60;99.90;;;;;;4835211;29;20046;-89
2022/07/24 01:55:07;;;;;;;6.40;5.80;;;15.40;99.90;;;;;;4804871;29;20060;-91
2022/07/24 01:57:35;;;;;;;5.82;5.32;;;15.40;99.90;;;;;;4782778;29;20083;-90
2022/07/24 02:00:12;;;;;;;;;;;;;;;;;;;;;
2022/07/24 02:02:39;;;;;;;5.72;5.18;;;14.40;99.90;;;;;;4827763;29;20071;-90
2022/07/24 02:05:22;;;;;;;6.50;5.80;;;14.00;99.90;;;;;;4813356;29;20476;-90
2022/07/24 02:07:57;;;;;;;6.30;5.37;;;15.50;99.90;;;;;;4829478;29;20065;-89
2022/07/24 02:13:12;;;;;;;6.38;5.50;;;15.10;99.90;;;;;;4821015;29;20118;-91
2022/07/24 02:15:38;;;;;;;6.15;5.60;;;15.30;99.90;;;;;;4813799;29;20210;-89
2022/07/24 02:18:06;;;;;;;13.93;7.07;;;15.10;99.90;;;;;;4813360;29;20082;-89
2022/07/24 02:20:34;;;;;;;6.32;5.60;;;15.20;99.90;;;;;;4820982;29;20046;-90
2022/07/24 02:23:02;;;;;;;6.10;5.25;;;15.20;99.90;;;;;;4814104;29;20395;-90
2022/07/24 02:25:31;;;;;;;6.10;5.55;;;14.70;99.90;;;;;;4803289;29;20030;-90
2022/07/24 02:27:59;;;;;;;5.28;4.88;;;14.90;99.90;;;;;;4788827;29;20065;-89
2022/07/24 02:30:25;;;;;;;7.10;5.78;;;15.00;99.90;;;;;;4818790;29;20100;-89
2022/07/24 02:32:53;;;;;;;6.50;5.68;;;14.90;99.90;;;;;;4803674;29;20026;-90
2022/07/24 02:35:22;;;;;;;6.82;6.03;;;16.90;99.90;;;;;;4833113;29;20054;-90
2022/07/24 02:37:52;;;;;;;6.10;5.57;;;13.40;99.90;;;;;;4797513;29;20050;-89
2022/07/24 02:40:18;;;;;;;6.45;5.43;;;15.30;99.90;;;;;;4795980;29;20081;-89
2022/07/24 02:42:53;;;;;;;6.93;5.82;;;13.90;99.90;;;;;;4811499;29;20584;-90
2022/07/24 02:45:19;;;;;;;5.82;5.32;;;15.10;99.90;;;;;;4810977;29;20054;-89
2022/07/24 02:47:51;;;;;;;7.50;5.18;;;14.90;99.90;;;;;;4798613;29;20056;-88
2022/07/24 02:50:24;;;;;;;5.95;5.43;;;15.30;99.90;;;;;;4814370;29;20050;-88
2022/07/24 02:52:52;;;;;;;6.10;5.53;;;15.20;99.90;;;;;;4799076;29;20486;-89
2022/07/24 02:55:27;;;;;;;7.15;5.63;;;14.90;99.90;;;;;;4797855;29;20095;-90
2022/07/24 02:57:57;;;;;;;7.05;5.57;;;14.50;99.90;;;;;;4789521;29;20141;-92
2022/07/24 03:00:23;;;;;;;5.70;5.20;;;14.90;99.90;;;;;;4820091;29;20030;-91
2022/07/24 03:02:51;;;;;;;5.72;5.15;;;14.90;99.90;;;;;;4816699;29;20050;-91
2022/07/24 03:05:17;;;;;;;6.35;5.75;;;15.20;99.90;;;;;;4811764;29;20581;-91
2022/07/24 03:07:52;;;;;;;6.18;5.68;;;15.10;99.90;;;;;;4797582;29;20061;-91
2022/07/24 03:10:19;;;;;;;6.10;5.40;;;14.60;99.90;;;;;;4814939;29;20082;-91
2022/07/24 03:12:49;;;;;;;6.05;5.22;;;15.10;99.90;;;;;;4829250;29;20109;-89
2022/07/24 03:15:16;;;;;;;5.75;5.25;;;15.00;99.90;;;;;;4825008;29;20122;-90
2022/07/24 03:17:55;;;;;;;7.00;5.38;;;15.20;99.90;;;;;;4857049;29;20056;-88
2022/07/24 03:20:42;;;;;;;8.82;5.50;;;15.10;99.90;;;;;;4843146;29;20085;-90
2022/07/24 03:23:19;;;;;;;7.45;5.63;;;15.10;99.90;;;;;;4799176;29;20061;-90
2022/07/24 03:25:48;;;;;;;6.38;5.75;;;15.20;99.90;;;;;;4833288;29;20085;-90
2022/07/24 03:28:27;;;;;;;7.88;5.63;;;15.80;99.90;;;;;;4800368;29;20093;-91
2022/07/24 03:30:53;;;;;;;6.30;5.70;;;14.00;99.90;;;;;;4826671;29;20046;-90
2022/07/24 03:33:19;;;;;;;5.75;5.25;;;15.10;99.90;;;;;;4791492;29;20107;-91
2022/07/24 03:35:47;;;;;;;8.02;5.95;;;15.10;99.90;;;;;;4796025;29;20064;-88
2022/07/24 03:38:13;;;;;;;9.18;5.68;;;15.20;99.90;;;;;;4812425;29;20057;-92
2022/07/24 03:40:42;;;;;;;6.97;5.57;;;15.20;99.90;;;;;;4796466;29;20054;-89
2022/07/24 03:43:10;;;;;;;6.00;5.40;;;15.30;99.90;;;;;;4808690;29;20053;-89
2022/07/24 03:45:36;;;;;;;5.95;5.40;;;15.40;99.90;;;;;;4803760;29;20053;-90
2022/07/24 03:48:09;;;;;;;6.25;5.65;;;15.40;99.90;;;;;;4805579;29;20041;-89
2022/07/24 03:50:38;;;;;;;5.50;4.95;;;15.30;99.90;;;;;;4805508;29;20063;-91
2022/07/24 03:53:06;;;;;;;8.30;5.78;;;15.30;99.90;;;;;;4806196;29;20033;-90
2022/07/24 03:55:40;;;;;;;7.10;5.93;;;15.40;99.90;;;;;;4835890;29;20030;-89
2022/07/24 03:58:06;;;;;;;6.72;6.03;;;15.40;99.90;;;;;;4806252;29;20049;-91
2022/07/24 04:00:43;;;;;;;7.15;5.93;;;15.40;99.90;;;;;;4819350;29;20034;-91
2022/07/24 04:03:21;;;;;;;8.10;6.07;;;15.40;99.90;;;;;;4856482;29;20061;-89
2022/07/24 04:05:56;;;;;;;8.52;5.40;;;15.60;99.90;;;;;;4841357;29;20046;-88
2022/07/24 04:08:24;;;;;;;8.65;5.95;;;15.60;99.90;;;;;;4812330;29;20080;-93
2022/07/24 04:10:56;;;;;;;6.22;5.50;;;15.70;99.90;;;;;;4809529;29;20408;-89
2022/07/24 04:13:29;;;;;;;6.68;5.65;;;15.80;99.90;;;;;;4831367;29;20081;-91
2022/07/24 04:15:58;;;;;;;6.95;5.80;;;15.80;99.90;;;;;;4828429;29;20057;-90
2022/07/24 04:18:26;;;;;;;6.50;5.53;;;15.90;99.90;;;;;;4796668;29;20411;-91
2022/07/24 04:20:52;;;;;;;5.97;5.38;;;15.80;99.90;;;;;;4810048;29;20046;-89
2022/07/24 04:23:40;;;;;;;;;;;;;;;;;;;;;
2022/07/24 04:26:09;;;;;;;6.32;5.63;;;15.90;99.90;;;;;;4829606;29;20110;-90
2022/07/24 04:28:35;;;;;;;6.45;5.78;;;16.00;99.90;;;;;;4795795;29;20126;-90
2022/07/24 04:31:04;;;;;;;6.18;5.57;;;16.00;99.90;;;;;;4795486;29;20050;-90
2022/07/24 04:33:42;;;;;;;6.20;5.60;;;16.00;99.90;;;;;;4794496;29;20058;-91
2022/07/24 04:36:09;;;;;;;6.43;5.82;;;16.00;99.90;;;;;;4812031;29;20089;-91
2022/07/24 04:38:51;;;;;;;8.48;5.63;;;16.10;99.90;;;;;;4803624;29;20034;-89
2022/07/24 04:41:21;;;;;;;6.78;5.85;;;16.10;99.90;;;;;;4803373;29;20060;-89
2022/07/24 04:43:48;;;;;;;6.63;5.22;;;16.10;99.90;;;;;;4827678;29;20054;-89
2022/07/24 04:46:14;;;;;;;5.53;5.03;;;16.10;99.90;;;;;;4810805;29;20054;-89
2022/07/24 04:48:40;;;;;;;6.72;5.85;;;16.20;99.90;;;;;;4803394;29;20110;-88
2022/07/24 04:51:18;;;;;;;;;;;;;;;;;;;;;
2022/07/24 04:53:47;;;;;;;6.50;5.22;;;16.30;99.90;;;;;;4800882;29;20074;-90
2022/07/24 04:56:13;;;;;;;6.28;5.03;;;17.20;99.90;;;;;;4804162;29;20058;-89
2022/07/24 04:58:43;;;;;;;6.28;5.15;;;16.60;99.90;;;;;;4813752;29;20087;-90
2022/07/24 05:01:14;;;;;;;5.70;5.07;;;16.30;99.90;;;;;;4802818;29;20061;-89
2022/07/24 05:03:45;;;;;;;7.15;4.60;;;17.30;99.90;;;;;;4783431;29;20046;-91
2022/07/24 05:06:13;;;;;;;6.00;4.57;;;17.70;99.90;;;;;;4801151;29;20065;-92
2022/07/24 05:08:41;;;;;;;4.50;4.15;;;18.10;99.90;;;;;;4777562;29;20063;-91
2022/07/24 05:11:10;;;;;;;5.18;4.32;;;18.10;99.90;;;;;;4818042;29;20051;-91
2022/07/24 05:13:42;;;;;;;7.53;4.38;;;18.80;99.90;;;;;;4819945;29;20045;-92
2022/07/24 05:16:15;;;;;;;8.30;4.80;;;18.90;99.90;;;;;;4805871;29;20034;-90
2022/07/24 05:18:44;;;;;;;7.38;3.92;;;19.90;99.90;;;;;;4826720;29;20061;-91
2022/07/24 05:21:10;;;;;;;4.57;4.15;;;19.60;99.90;;;;;;4794204;29;20031;-90
2022/07/24 05:24:01;;;;;;;4.57;4.10;;;19.40;99.90;;;;;;4803685;29;20057;-92
2022/07/24 05:26:31;;;;;;;5.15;4.15;;;19.90;99.90;;;;;;4819581;29;20058;-90
2022/07/24 05:29:07;;;;;;;5.15;4.65;;;20.10;99.90;;;;;;4804634;29;20079;-90
2022/07/24 05:31:36;;;;;;;4.80;4.25;;;19.10;99.90;;;;;;4795645;29;20061;-94
2022/07/24 05:34:02;;;;;;;5.90;4.40;;;20.90;99.90;;;;;;4787379;29;20054;-89
2022/07/24 05:36:30;;;;;;;5.22;3.92;;;20.40;99.90;;;;;;4801207;29;20046;-90
2022/07/24 05:39:02;;;;;;;5.15;4.18;;;22.20;99.90;;;;;;4786282;29;20046;-93
2022/07/24 05:41:33;;;;;;;4.45;4.05;;;22.20;99.90;;;;;;4791951;29;20054;-91
2022/07/24 05:43:59;;;;;;;4.40;4.00;;;22.30;99.90;;;;;;4787637;29;20129;-91
2022/07/24 05:46:27;;;;;;;5.45;4.03;;;23.10;99.90;;;;;;4787551;29;20491;-91
2022/07/24 05:48:55;;;;;;;5.75;4.30;;;23.20;99.90;;;;;;4803203;29;20050;-92
2022/07/24 05:51:26;;;;;;;4.75;4.35;;;23.30;99.90;;;;;;4791568;29;20057;-91
2022/07/24 05:53:55;;;;;;;4.80;4.13;;;23.10;99.90;;;;;;4804685;29;20060;-92
2022/07/24 05:56:23;;;;;;;5.82;4.72;;;23.20;99.90;;;;;;4819951;29;20060;-92
2022/07/24 05:58:54;;;;;;;8.02;4.53;;;23.70;99.90;;;;;;4822411;29;20046;-90
2022/07/24 06:01:50;;;;;;;5.80;5.10;;;23.60;99.90;;;;;;4790739;29;20491;-92
2022/07/24 06:04:23;;;;;;;5.13;4.68;;;23.10;99.90;;;;;;4811541;29;20085;-92
2022/07/24 06:06:54;;;;;;;7.47;5.45;;;23.50;99.90;;;;;;4792607;29;20487;-92
2022/07/24 06:09:22;;;;;;;6.00;5.25;;;24.10;99.90;;;;;;4790821;29;20427;-92
2022/07/24 06:11:48;;;;;;;6.07;4.95;;;24.60;99.90;;;;;;4787414;29;20054;-92
2022/07/24 06:14:14;;;;;;;5.72;5.22;;;24.00;99.90;;;;;;4800991;29;20487;-92
2022/07/24 06:16:51;;;;;;;7.85;5.22;;;23.90;99.90;;;;;;4782031;29;20536;-92
2022/07/24 06:19:17;;;;;;;6.47;5.53;;;23.80;99.90;;;;;;4771635;29;20091;-91
2022/07/24 06:21:47;;;;;;;6.93;5.93;;;23.80;99.90;;;;;;4785757;29;20047;-93
2022/07/24 06:24:16;;;;;;;6.10;5.50;;;24.20;99.90;;;;;;4799258;29;20058;-91
2022/07/24 06:26:42;;;;;;;7.05;5.90;;;24.80;99.90;;;;;;4786207;29;20141;-93
2022/07/24 06:29:10;;;;;;;8.70;6.72;;;24.70;99.90;;;;;;4772269;29;20088;-91
2022/07/24 06:31:39;;;;;;;7.63;6.65;;;23.70;99.90;;;;;;4821496;29;20083;-92
2022/07/24 06:34:10;;;;;;;7.22;6.53;;;24.00;99.90;;;;;;4818854;29;20030;-91
2022/07/24 06:36:35;;;;;;;8.02;7.22;;;24.00;99.90;;;;;;4819422;29;20059;-91
2022/07/24 06:39:19;;;;;;;10.02;7.10;;;24.20;99.90;;;;;;4817196;29;20054;-90
2022/07/24 06:41:48;;;;;;;8.05;7.25;;;24.60;99.90;;;;;;4816192;29;20054;-93
2022/07/24 06:44:16;;;;;;;7.82;7.13;;;23.30;99.90;;;;;;4812783;29;20053;-91
2022/07/24 06:46:42;;;;;;;8.32;7.43;;;25.50;99.90;;;;;;4832220;29;20107;-89
2022/07/24 06:49:08;;;;;;;9.70;7.72;;;26.00;99.90;;;;;;4827753;29;20038;-91
2022/07/24 06:51:34;;;;;;;9.02;8.13;;;25.10;99.90;;;;;;4805503;29;20046;-93
2022/07/24 06:54:05;;;;;;;11.10;7.78;;;24.70;99.90;;;;;;4805108;29;20075;-93
2022/07/24 06:56:31;;;;;;;8.75;7.95;;;24.00;99.90;;;;;;4826039;29;20050;-90
2022/07/24 06:58:59;;;;;;;8.88;7.85;;;23.90;99.90;;;;;;4819014;29;20130;-89
2022/07/24 07:01:28;;;;;;;9.02;8.25;;;24.20;99.90;;;;;;4814368;29;20406;-90
2022/07/24 07:03:54;;;;;;;11.30;8.98;;;24.00;99.90;;;;;;4813610;29;20046;-92
2022/07/24 07:06:20;;;;;;;11.45;8.95;;;24.40;99.90;;;;;;4813319;29;20058;-90
2022/07/24 07:08:56;;;;;;;9.75;8.75;;;24.90;99.90;;;;;;4798153;29;20586;-89
2022/07/24 07:11:31;;;;;;;12.32;8.68;;;25.50;99.90;;;;;;4811582;29;20049;-91
2022/07/24 07:13:57;;;;;;;11.57;9.93;;;25.50;99.90;;;;;;4796460;29;20062;-93
2022/07/24 07:16:37;;;;;;;10.15;8.93;;;24.10;99.90;;;;;;4835282;29;20060;-91
2022/07/24 07:19:03;;;;;;;9.40;8.30;;;26.40;99.90;;;;;;4813387;29;20034;-90
2022/07/24 07:21:33;;;;;;;9.77;8.20;;;26.60;99.90;;;;;;4831872;29;20042;-93
2022/07/24 07:24:03;;;;;;;9.98;8.38;;;26.80;99.90;;;;;;4830345;29;20050;-93
2022/07/24 07:26:31;;;;;;;10.70;9.38;;;26.80;99.90;;;;;;4813373;29;20054;-91
2022/07/24 07:29:00;;;;;;;10.10;9.20;;;26.70;99.90;;;;;;4814868;29;20062;-92
2022/07/24 07:31:29;;;;;;;9.95;8.88;;;26.80;99.90;;;;;;4830065;29;20056;-91
2022/07/24 07:33:57;;;;;;;10.75;9.65;;;27.50;99.90;;;;;;4829002;29;20065;-91
2022/07/24 07:36:23;;;;;;;11.38;9.02;;;27.60;99.90;;;;;;4841870;29;20476;-91
2022/07/24 07:38:54;;;;;;;9.73;8.80;;;27.60;99.90;;;;;;4813245;29;20061;-93
2022/07/24 07:41:28;;;;;;;9.75;8.75;;;28.00;99.90;;;;;;4822904;29;20085;-92
2022/07/24 07:43:59;;;;;;;9.60;8.68;;;28.10;99.90;;;;;;4843215;29;20049;-88
2022/07/24 07:46:44;;;;;;;10.93;9.07;;;28.40;99.90;;;;;;4790720;29;20049;-90
2022/07/24 07:49:55;;;;;;;;;;;;;;;;;;;;;
2022/07/24 07:52:24;;;;;;;10.88;8.95;;;28.70;99.90;;;;;;4851660;29;20038;-89
2022/07/24 07:54:53;;;;;;;10.88;9.23;;;28.90;99.90;;;;;;4803506;29;20034;-95
2022/07/24 07:57:27;;;;;;;10.77;9.80;;;27.20;99.90;;;;;;4817264;29;20031;-89
2022/07/24 07:59:55;;;;;;;11.68;9.27;;;27.60;99.90;;;;;;4862464;29;20049;-93
2022/07/24 08:02:20;;;;;;;10.90;9.60;;;27.30;99.90;;;;;;4841422;29;20080;-90
2022/07/24 08:04:59;;;;;;;12.27;9.35;;;27.20;99.90;;;;;;4822759;29;20047;-89
2022/07/24 08:07:33;;;;;;;10.95;9.50;;;27.70;99.90;;;;;;4822302;29;20054;-88
2022/07/24 08:12:47;;;;;;;10.63;9.55;;;27.50;99.90;;;;;;4955231;23;20168;-92
2022/07/24 08:15:33;;;;;;;11.95;9.43;;;27.60;99.90;;;;;;4804873;29;20045;-94
2022/07/24 08:18:04;;;;;;;11.15;9.45;;;28.20;99.90;;;;;;4838388;29;20034;-96
2022/07/24 08:20:50;;;;;;;;;;;;;;;;;;;;;
2022/07/24 08:27:23;;;;;;;7.82;6.85;;;29.40;99.90;;;;;;4817189;29;20050;-94
2022/07/24 08:30:01;;;;;;;7.53;6.75;;;28.70;99.90;;;;;;4822986;29;20051;-94
2022/07/24 08:32:49;;;;;;;6.85;6.20;;;28.80;99.90;;;;;;4786059;30;20051;-93
2022/07/24 08:35:44;;;;;;;5.60;5.10;;;29.70;99.90;;;;;;4768055;30;20635;-92
2022/07/24 08:38:30;;;;;;;5.10;4.60;;;29.20;98.70;;;;;;4771136;29;20120;-93
2022/07/24 08:41:01;;;;;;;4.63;4.22;;;30.40;99.00;;;;;;4804717;29;20062;-95
2022/07/24 08:43:27;;;;;;;6.88;4.13;;;30.80;98.60;;;;;;4786942;29;20142;-92
2022/07/24 08:46:01;;;;;;;4.97;3.75;;;29.60;99.10;;;;;;4800042;29;20509;-93
2022/07/24 08:48:27;;;;;;;4.00;3.70;;;29.80;99.00;;;;;;4792899;29;20060;-90
2022/07/24 08:50:53;;;;;;;4.43;3.70;;;28.60;99.40;;;;;;4802746;29;20129;-91
2022/07/24 08:53:22;;;;;;;3.85;3.53;;;28.20;99.90;;;;;;4803243;29;20050;-94
2022/07/24 08:55:51;;;;;;;3.53;3.22;;;28.00;99.90;;;;;;4804276;29;20050;-93
2022/07/24 08:58:17;;;;;;;4.85;3.40;;;28.20;99.90;;;;;;4786826;29;20046;-90
2022/07/24 09:00:48;;;;;;;5.45;3.55;;;28.20;99.90;;;;;;4782073;29;20137;-90
2022/07/24 09:06:22;;;;;;;3.40;2.88;;;27.70;99.70;;;;;;5059219;27;20412;-95
2022/07/24 09:09:05;;;;;;;3.75;2.95;;;27.80;99.90;;;;;;5060058;28;20112;-92
2022/07/24 09:11:37;;;;;;;3.78;3.10;;;27.40;99.90;;;;;;5044615;28;20055;-96
2022/07/24 09:16:56;;;;;;;3.60;2.90;;;28.30;99.90;;;;;;5086082;28;20097;-91
2022/07/24 09:19:22;;;;;;;2.90;2.70;;;28.00;99.90;;;;;;5054915;28;20056;-93
2022/07/24 09:21:49;;;;;;;3.17;2.90;;;28.70;99.80;;;;;;5057913;28;20029;-94
2022/07/24 09:24:17;;;;;;;3.38;2.92;;;28.70;99.90;;;;;;5071013;28;20095;-90
2022/07/24 09:26:53;;;;;;;3.00;2.65;;;28.80;99.20;;;;;;5043589;28;20045;-90
2022/07/24 09:29:27;;;;;;;3.22;2.85;;;28.60;99.40;;;;;;5036164;28;20075;-93
2022/07/24 09:32:01;;;;;;;3.15;2.85;;;28.70;98.90;;;;;;5039299;28;20045;-90
2022/07/24 09:34:40;;;;;;;3.13;2.78;;;28.80;99.50;;;;;;5069407;28;20083;-91
2022/07/24 09:37:07;;;;;;;3.20;2.90;;;29.60;99.00;;;;;;5070785;28;20033;-89
2022/07/24 09:39:35;;;;;;;2.95;2.72;;;29.90;99.30;;;;;;5053488;28;20362;-87
2022/07/24 09:42:05;;;;;;;2.72;2.28;;;30.40;99.40;;;;;;5052124;28;20131;-89
2022/07/24 09:44:31;;;;;;;2.78;2.58;;;30.10;97.70;;;;;;5052813;28;20049;-91
2022/07/24 09:47:08;;;;;;;2.78;2.50;;;28.80;98.30;;;;;;5040853;28;20044;-91
2022/07/24 09:49:34;;;;;;;2.83;2.47;;;29.30;98.50;;;;;;5039672;28;20045;-89
2022/07/24 09:52:23;;;;;;;2.80;2.60;;;29.00;97.90;;;;;;5089880;28;20036;-91
2022/07/24 09:54:50;;;;;;;3.95;2.97;;;30.40;98.10;;;;;;5026891;28;20071;-91
2022/07/24 09:57:27;;;;;;;2.90;2.60;;;29.90;98.10;;;;;;5062325;28;20046;-89
2022/07/24 09:59:55;;;;;;;3.05;2.70;;;29.80;98.30;;;;;;5049425;28;20037;-89
2022/07/24 10:02:22;;;;;;;2.75;2.45;;;30.20;98.10;;;;;;5047284;28;20045;-89
2022/07/24 10:04:49;;;;;;;3.30;2.70;;;30.70;98.00;;;;;;5071018;28;20104;-91
2022/07/24 10:07:17;;;;;;;4.22;2.60;;;30.20;98.10;;;;;;5047229;28;20046;-89
2022/07/24 10:09:48;;;;;;;2.75;2.42;;;30.60;97.50;;;;;;5063477;28;20045;-92
2022/07/24 10:12:18;;;;;;;3.65;2.65;;;30.90;97.00;;;;;;5043120;28;20049;-93
2022/07/24 10:14:44;;;;;;;2.70;2.50;;;29.50;97.00;;;;;;5060251;28;20056;-89
2022/07/24 10:17:12;;;;;;;2.70;2.50;;;31.00;97.50;;;;;;5034741;28;20049;-90
2022/07/24 10:19:48;;;;;;;3.40;2.80;;;30.70;96.90;;;;;;5016054;28;20504;-89
2022/07/24 10:22:23;;;;;;;3.22;2.70;;;30.40;96.80;;;;;;5046539;28;20132;-89
2022/07/24 10:25:02;;;;;;;3.10;2.80;;;30.30;97.10;;;;;;5028168;28;20053;-88
2022/07/24 10:27:32;;;;;;;3.03;2.83;;;30.50;97.40;;;;;;5031187;28;20060;-89
2022/07/24 10:30:07;;;;;;;3.25;2.72;;;30.30;97.40;;;;;;5050506;28;20045;-89
2022/07/24 10:32:34;;;;;;;2.72;2.50;;;30.40;97.80;;;;;;5028731;28;20142;-89
2022/07/24 10:35:19;;;;;;;2.63;2.42;;;30.30;97.70;;;;;;5028821;28;20046;-90
2022/07/24 10:38:06;;;;;;;2.58;2.38;;;30.90;96.80;;;;;;5010101;28;20116;-89
2022/07/24 10:40:54;;;;;;;4.00;2.53;;;31.00;96.80;;;;;;5048550;28;20077;-87
2022/07/24 10:43:20;;;;;;;3.30;3.00;;;30.90;97.50;;;;;;5042410;28;20029;-89
2022/07/24 10:45:55;;;;;;;3.20;2.70;;;30.40;97.00;;;;;;5059495;28;20055;-88
2022/07/24 10:48:25;;;;;;;2.83;2.63;;;30.80;97.20;;;;;;5063602;28;20083;-93
2022/07/24 10:50:57;;;;;;;2.80;2.60;;;28.60;96.50;;;;;;5028272;28;20053;-94
2022/07/24 10:53:23;;;;;;;3.80;2.90;;;29.80;97.40;;;;;;5025000;28;20038;-93
2022/07/24 10:55:49;;;;;;;5.50;2.80;;;28.70;97.10;;;;;;5025333;28;20120;-88
2022/07/24 10:58:22;;;;;;;3.00;2.80;;;30.50;97.60;;;;;;5015013;28;20037;-90
2022/07/24 11:00:50;;;;;;;3.22;2.67;;;29.60;96.90;;;;;;5021984;28;20540;-90
2022/07/24 11:03:23;;;;;;;2.85;2.55;;;30.50;96.90;;;;;;5038965;28;20041;-93
2022/07/24 11:06:06;;;;;;;2.70;2.50;;;30.80;96.70;;;;;;5054912;28;20119;-89
2022/07/24 11:08:50;;;;;;;2.58;2.42;;;29.70;96.10;;;;;;5054634;28;20053;-90
2022/07/24 11:11:19;;;;;;;2.85;2.58;;;30.30;96.90;;;;;;5015917;28;20103;-91
2022/07/24 11:14:32;;;;;;;3.05;2.75;;;29.80;97.00;;;;;;5037322;28;20121;-93
2022/07/24 11:16:58;;;;;;;3.65;2.80;;;29.00;97.70;;;;;;5027558;28;20067;-91
2022/07/24 11:19:26;;;;;;;3.60;2.95;;;29.20;98.30;;;;;;5041923;28;20056;-92
2022/07/24 11:22:01;;;;;;;3.05;2.67;;;28.90;97.80;;;;;;5056335;28;20041;-91
2022/07/24 11:24:30;;;;;;;2.70;2.50;;;28.80;97.90;;;;;;5023213;28;20045;-91
2022/07/24 11:27:05;;;;;;;3.85;2.63;;;28.30;98.30;;;;;;5016930;28;20104;-92
2022/07/24 11:29:35;;;;;;;3.20;2.90;;;29.00;97.90;;;;;;4984208;28;20075;-94
2022/07/24 11:32:07;;;;;;;2.83;2.35;;;29.30;98.30;;;;;;4984546;28;20091;-92
2022/07/24 11:34:34;;;;;;;3.08;2.78;;;29.90;97.70;;;;;;5017194;28;20118;-93
2022/07/24 11:37:08;;;;;;;3.10;2.80;;;29.80;98.00;;;;;;4985270;28;20501;-93
2022/07/24 11:39:38;;;;;;;2.83;2.63;;;29.80;97.30;;;;;;5018314;28;20054;-93
2022/07/24 11:42:08;;;;;;;2.55;2.35;;;30.00;97.30;;;;;;5038988;28;20038;-92
2022/07/24 11:44:41;;;;;;;3.10;2.50;;;29.60;97.00;;;;;;5051437;28;20081;-94
2022/07/24 11:47:18;;;;;;;3.50;3.13;;;29.10;97.10;;;;;;5053003;28;20037;-93
2022/07/24 11:49:57;;;;;;;2.90;2.70;;;29.60;97.30;;;;;;5053375;28;20041;-93
2022/07/24 11:52:42;;;;;;;2.40;2.20;;;27.80;97.40;;;;;;5051713;28;20053;-94
2022/07/24 11:55:13;;;;;;;2.70;2.50;;;29.70;98.30;;;;;;5034522;28;20053;-92
2022/07/24 11:57:42;;;;;;;2.70;2.35;;;30.00;97.80;;;;;;5038480;28;20111;-92
2022/07/24 12:00:23;;;;;;;3.75;2.55;;;29.90;97.00;;;;;;5042139;28;20061;-93
2022/07/24 12:03:03;;;;;;;2.50;2.30;;;29.60;96.80;;;;;;5058975;28;20101;-91
2022/07/24 12:05:45;;;;;;;2.35;2.15;;;28.10;96.60;;;;;;5036731;28;20057;-92
2022/07/24 12:08:27;;;;;;;2.80;2.60;;;30.00;96.30;;;;;;5024480;28;20057;-94
2022/07/24 12:10:57;;;;;;;2.70;2.50;;;29.10;97.50;;;;;;5048678;28;20071;-91
2022/07/24 12:13:23;;;;;;;2.95;2.67;;;29.00;97.70;;;;;;5062734;28;20037;-90
2022/07/24 12:15:49;;;;;;;2.53;2.33;;;28.80;98.00;;;;;;5010602;28;20092;-90
2022/07/24 12:18:14;;;;;;;3.40;2.90;;;29.10;97.00;;;;;;5026116;28;20050;-90
2022/07/24 12:20:42;;;;;;;2.58;2.38;;;29.00;97.80;;;;;;5028218;28;20131;-91
2022/07/24 12:23:09;;;;;;;4.55;2.55;;;28.40;97.30;;;;;;5025068;28;20061;-92
2022/07/24 12:25:35;;;;;;;2.72;2.53;;;28.10;96.60;;;;;;5010754;28;20041;-92
2022/07/24 12:28:09;;;;;;;3.38;2.28;;;29.60;97.30;;;;;;5043223;28;20056;-93
2022/07/24 12:30:52;;;;;;;;;;;29.60;97.10;;;;;;5062701;28;20052;-93
2022/07/24 12:33:29;;;;;;;3.30;2.50;;;29.30;97.30;;;;;;5037724;28;19967;-90
2022/07/24 12:36:08;;;;;;;2.97;2.78;;;29.30;97.80;;;;;;5042372;28;20046;-94
2022/07/24 12:38:38;;;;;;;3.38;2.40;;;29.40;97.30;;;;;;5041606;28;20045;-94
2022/07/24 12:41:14;;;;;;;2.65;2.42;;;29.50;97.70;;;;;;5034552;28;20541;-92
2022/07/24 12:44:00;;;;;;;2.70;2.45;;;28.90;97.50;;;;;;5051485;28;20042;-91
2022/07/24 12:46:35;;;;;;;3.10;2.20;;;29.80;96.90;;;;;;5034942;28;20045;-93
2022/07/24 12:49:14;;;;;;;3.83;2.70;;;29.70;97.20;;;;;;5057154;28;20029;-93
2022/07/24 12:51:53;;;;;;;2.70;2.38;;;29.70;97.10;;;;;;5029420;28;20056;-93
2022/07/24 12:54:29;;;;;;;2.65;2.45;;;29.90;96.70;;;;;;5019169;28;20080;-94
2022/07/24 12:57:07;;;;;;;2.88;2.58;;;29.80;97.70;;;;;;5050163;28;20037;-91
2022/07/24 12:59:39;;;;;;;2.70;2.50;;;29.80;96.70;;;;;;5058297;28;20045;-93
2022/07/24 13:02:15;;;;;;;4.75;2.90;;;29.90;96.10;;;;;;5027131;28;20120;-94
2022/07/24 13:04:47;;;;;;;2.58;2.38;;;29.60;96.60;;;;;;5021144;28;20065;-92
2022/07/24 13:07:15;;;;;;;3.40;2.58;;;29.90;96.30;;;;;;5014398;28;20049;-91
2022/07/24 13:09:41;;;;;;;2.65;2.45;;;29.70;96.80;;;;;;5014569;28;20065;-91
2022/07/24 13:12:08;;;;;;;3.30;3.00;;;29.90;96.80;;;;;;5035685;28;20054;-93
2022/07/24 13:14:36;;;;;;;2.75;2.55;;;29.50;96.70;;;;;;5003197;28;20060;-93
2022/07/24 13:17:12;;;;;;;4.47;2.80;;;29.70;97.40;;;;;;5014843;28;20108;-92
2022/07/24 13:19:43;;;;;;;2.83;2.40;;;29.80;96.60;;;;;;4981363;28;20128;-91
2022/07/24 13:22:08;;;;;;;2.70;2.50;;;29.90;97.00;;;;;;5001775;28;20064;-92
2022/07/24 13:24:37;;;;;;;3.33;2.78;;;29.90;97.30;;;;;;5005160;28;20046;-89
2022/07/24 13:27:04;;;;;;;4.10;2.67;;;29.90;95.80;;;;;;5033057;28;20049;-89
2022/07/24 13:29:30;;;;;;;3.47;2.75;;;29.90;95.00;;;;;;5087265;28;20060;-91